Time;durP1;ratioP1;P1;durP2;ratioP2;P2;SDS_P1;SDS_P2;PMS_P1;PMS_P2;Temp;Humidity;BMP_temperature;BMP_pressure;BME280_temperature;BME280_humidity;BME280_pressure;Samples;Min_cycle;Max_cycle;Signal;HPM_P1;HPM_P2
2022/11/01 00:01:06;;;;;;;18.13;5.75;;;;;;;17.31;100.00;100687.94;5076608;28;20052;-71
2022/11/01 00:03:33;;;;;;;8.73;2.85;;;;;;;17.52;100.00;100692.16;5084078;28;21039;-74
2022/11/01 00:05:59;;;;;;;13.48;3.80;;;;;;;17.74;100.00;100679.09;5081102;28;20539;-74
2022/11/01 00:08:26;;;;;;;11.25;4.07;;;;;;;17.95;100.00;100682.00;5074100;28;20051;-74
2022/11/01 00:10:52;;;;;;;13.13;3.85;;;;;;;18.10;100.00;100687.94;5079146;27;20113;-72
2022/11/01 00:13:18;;;;;;;15.88;4.53;;;;;;;18.24;100.00;100683.88;5083417;28;20069;-72
2022/11/01 00:15:45;;;;;;;14.13;3.70;;;;;;;18.30;100.00;100688.47;5081461;28;20113;-72
2022/11/01 00:18:11;;;;;;;10.10;3.25;;;;;;;18.47;100.00;100672.34;5083159;28;20059;-72
2022/11/01 00:20:38;;;;;;;10.95;2.85;;;;;;;18.56;100.00;100678.81;5080894;27;20052;-72
2022/11/01 00:23:04;;;;;;;12.90;4.82;;;;;;;18.66;100.00;100672.03;5079250;28;20051;-73
2022/11/01 00:25:31;;;;;;;13.93;3.97;;;;;;;18.69;100.00;100661.97;5078889;28;20812;-72
2022/11/01 00:27:57;;;;;;;13.30;4.00;;;;;;;18.77;100.00;100666.06;5083769;28;20575;-73
2022/11/01 00:30:24;;;;;;;9.40;3.60;;;;;;;18.76;100.00;100662.47;5080812;28;20192;-73
2022/11/01 00:32:50;;;;;;;13.25;5.00;;;;;;;18.86;100.00;100666.94;5079372;28;20048;-72
2022/11/01 00:35:17;;;;;;;15.75;4.68;;;;;;;18.94;100.00;100668.25;5082800;28;20058;-72
2022/11/01 00:37:43;;;;;;;14.70;3.33;;;;;;;18.97;100.00;100670.13;5077668;28;20056;-72
2022/11/01 00:40:10;;;;;;;16.13;4.57;;;;;;;18.95;100.00;100653.00;5083152;28;20055;-73
2022/11/01 00:42:37;;;;;;;14.43;4.35;;;;;;;18.94;100.00;100651.44;5079990;28;20124;-72
2022/11/01 00:45:04;;;;;;;9.35;2.88;;;;;;;18.90;100.00;100658.41;5079797;28;20857;-73
2022/11/01 00:47:30;;;;;;;19.02;4.97;;;;;;;18.93;100.00;100652.66;5087604;28;20049;-73
2022/11/01 00:49:56;;;;;;;17.48;3.80;;;;;;;18.93;100.00;100655.47;5078091;28;20466;-72
2022/11/01 00:52:23;;;;;;;11.75;3.58;;;;;;;18.95;100.00;100646.59;5081512;28;20084;-73
2022/11/01 00:54:49;;;;;;;13.30;3.75;;;;;;;18.97;100.00;100652.53;5085641;28;20113;-73
2022/11/01 00:57:16;;;;;;;12.77;3.00;;;;;;;18.99;100.00;100645.22;5084936;28;20056;-73
2022/11/01 00:59:42;;;;;;;9.85;3.60;;;;;;;18.98;100.00;100656.91;5083857;28;20059;-73
2022/11/01 01:02:09;;;;;;;10.10;2.58;;;;;;;18.96;100.00;100640.53;5080318;28;20059;-74
2022/11/01 01:04:40;;;;;;;12.60;4.20;;;;;;;19.03;100.00;100637.47;5074586;28;20759;-73
2022/11/01 01:07:06;;;;;;;15.18;4.38;;;;;;;19.03;100.00;100636.69;5079108;28;20043;-72
2022/11/01 01:09:33;;;;;;;13.88;4.43;;;;;;;18.89;100.00;100629.56;5078898;28;20054;-72
2022/11/01 01:12:00;;;;;;;11.30;2.50;;;;;;;18.75;100.00;100627.28;5082434;28;20814;-73
2022/11/01 01:14:28;;;;;;;17.40;5.05;;;;;;;18.76;100.00;100628.84;5083217;28;20074;-74
2022/11/01 01:16:58;;;;;;;14.50;4.93;;;;;;;18.79;100.00;100627.94;5086901;28;20088;-72
2022/11/01 01:19:24;;;;;;;13.65;3.55;;;;;;;18.71;100.00;100629.44;5080577;28;20059;-70
2022/11/01 01:21:51;;;;;;;13.30;4.40;;;;;;;18.68;100.00;100629.56;5085350;28;20136;-73
2022/11/01 01:24:17;;;;;;;12.85;4.80;;;;;;;18.68;100.00;100626.75;5078723;28;20059;-71
2022/11/01 01:26:44;;;;;;;14.73;5.18;;;;;;;18.60;100.00;100626.25;5090659;28;20043;-71
2022/11/01 01:29:10;;;;;;;15.50;5.03;;;;;;;18.53;100.00;100614.50;5072702;28;20060;-73
2022/11/01 01:31:37;;;;;;;15.07;4.30;;;;;;;18.57;100.00;100627.16;5076627;28;20056;-71
2022/11/01 01:34:03;;;;;;;11.02;3.78;;;;;;;18.49;100.00;100625.03;5087130;28;20068;-71
2022/11/01 01:36:30;;;;;;;14.27;3.95;;;;;;;18.47;100.00;100619.91;5078899;28;20420;-74
2022/11/01 01:38:56;;;;;;;11.90;4.28;;;;;;;18.48;100.00;100610.25;5075917;28;20547;-73
2022/11/01 01:44:45;;;;;;;15.00;5.15;;;;;;;18.47;100.00;100617.09;5074034;28;21105;-72
2022/11/01 01:47:17;;;;;;;13.90;4.95;;;;;;;18.44;100.00;100604.00;5074330;28;20055;-72
2022/11/01 01:49:46;;;;;;;18.38;4.40;;;;;;;18.42;100.00;100602.88;5076503;28;20044;-73
2022/11/01 01:52:13;;;;;;;16.80;4.80;;;;;;;18.41;100.00;100601.28;5083798;28;20054;-73
2022/11/01 01:54:40;;;;;;;14.05;5.47;;;;;;;18.44;100.00;100594.78;5078553;28;20052;-72
2022/11/01 01:57:07;;;;;;;15.00;5.32;;;;;;;18.44;100.00;100597.59;5068309;28;20055;-72
2022/11/01 01:59:35;;;;;;;14.45;5.18;;;;;;;18.41;100.00;100604.88;5067655;28;20597;-72
2022/11/01 02:02:02;;;;;;;13.90;5.25;;;;;;;18.44;100.00;100598.38;5077922;28;20066;-72
2022/11/01 02:04:34;;;;;;;16.55;5.10;;;;;;;18.39;100.00;100607.34;5070141;28;20507;-72
2022/11/01 02:07:00;;;;;;;19.27;5.60;;;;;;;18.34;100.00;100605.09;5071839;28;20040;-72
2022/11/01 02:09:27;;;;;;;17.10;4.97;;;;;;;18.43;100.00;100605.22;5072130;28;20047;-71
2022/11/01 02:11:57;;;;;;;18.33;4.50;;;;;;;18.43;100.00;100598.84;5078305;28;20052;-72
2022/11/01 02:14:24;;;;;;;5.55;2.05;;;;;;;18.35;100.00;100595.47;5071965;28;20058;-72
2022/11/01 02:16:57;;;;;;;11.35;3.78;;;;;;;18.37;100.00;100609.84;5071662;28;20048;-72
2022/11/01 02:19:52;;;;;;;15.40;4.60;;;;;;;18.40;100.00;100603.34;5073965;28;20070;-72
2022/11/01 02:22:24;;;;;;;16.50;4.68;;;;;;;18.42;100.00;100595.25;5094276;27;20106;-71
2022/11/01 02:25:26;;;;;;;15.90;6.03;;;;;;;18.43;100.00;100582.81;5073023;28;20121;-72
2022/11/01 02:28:07;;;;;;;15.45;5.07;;;;;;;18.44;100.00;100584.38;5078010;28;20051;-72
2022/11/01 02:31:00;;;;;;;18.10;4.63;;;;;;;18.48;100.00;100599.03;5086948;28;20048;-71
2022/11/01 02:33:45;;;;;;;20.33;5.13;;;;;;;18.50;100.00;100592.97;5081825;28;20052;-72
2022/11/01 02:36:41;;;;;;;15.07;4.78;;;;;;;18.46;100.00;100595.91;5107095;28;20047;-71
2022/11/01 02:39:33;;;;;;;11.52;4.03;;;;;;;18.48;100.00;100590.63;5101565;28;20680;-70
2022/11/01 02:42:13;;;;;;;15.90;4.60;;;;;;;18.51;100.00;100598.13;5099043;28;20052;-71
2022/11/01 02:44:47;;;;;;;15.70;5.28;;;;;;;18.53;100.00;100611.69;5097310;28;20051;-72
2022/11/01 02:47:16;;;;;;;13.65;4.57;;;;;;;18.49;100.00;100600.59;5101889;28;20055;-72
2022/11/01 02:49:47;;;;;;;15.38;4.82;;;;;;;18.43;100.00;100604.44;5096086;28;20462;-72
2022/11/01 02:52:22;;;;;;;18.55;5.40;;;;;;;18.46;100.00;100607.09;5104897;28;20056;-70
2022/11/01 02:54:54;;;;;;;14.25;4.18;;;;;;;18.48;100.00;100598.25;5105278;28;20056;-71
2022/11/01 02:57:38;;;;;;;10.82;3.80;;;;;;;18.44;100.00;100595.59;5102318;28;20070;-71
2022/11/01 03:00:21;;;;;;;14.43;4.32;;;;;;;18.39;100.00;100595.38;5095079;28;20511;-72
2022/11/01 03:02:54;;;;;;;17.25;5.22;;;;;;;18.45;100.00;100594.34;5093744;28;20055;-70
2022/11/01 03:05:48;;;;;;;15.85;4.72;;;;;;;18.36;100.00;100597.06;5101610;28;20052;-72
2022/11/01 03:08:19;;;;;;;14.05;4.25;;;;;;;18.44;100.00;100587.19;5090619;28;20039;-71
2022/11/01 03:10:59;;;;;;;14.88;4.88;;;;;;;18.40;100.00;100599.75;5100232;28;20050;-72
2022/11/01 03:13:31;;;;;;;15.18;4.40;;;;;;;18.26;100.00;100592.56;5089062;28;20055;-71
2022/11/01 03:16:16;;;;;;;15.27;4.60;;;;;;;18.30;100.00;100598.84;5095619;28;20052;-70
2022/11/01 03:19:20;;;;;;;15.03;4.37;;;;;;;18.25;100.00;100593.81;5097868;28;20043;-71
2022/11/01 03:21:57;;;;;;;11.65;3.42;;;;;;;18.20;100.00;100597.19;5093071;28;20813;-71
2022/11/01 03:24:31;;;;;;;12.98;4.38;;;;;;;18.27;100.00;100604.56;5099626;28;20621;-71
2022/11/01 03:27:05;;;;;;;13.95;4.50;;;;;;;18.25;100.00;100596.59;5094591;28;20076;-71
2022/11/01 03:29:33;;;;;;;15.20;4.70;;;;;;;18.17;100.00;100600.91;5099422;28;20058;-70
2022/11/01 03:32:02;;;;;;;21.92;7.07;;;;;;;18.18;100.00;100607.25;5099297;28;20047;-71
2022/11/01 03:34:30;;;;;;;18.42;5.15;;;;;;;18.13;100.00;100594.63;5101628;28;20047;-71
2022/11/01 03:37:04;;;;;;;4.22;1.25;;;;;;;18.07;100.00;100606.84;5100757;28;20039;-71
2022/11/01 03:39:35;;;;;;;12.07;3.90;;;;;;;18.19;100.00;100606.03;5103440;28;20044;-71
2022/11/01 03:42:07;;;;;;;14.57;4.75;;;;;;;18.19;100.00;100604.00;5095497;28;20043;-71
2022/11/01 03:44:40;;;;;;;14.57;4.50;;;;;;;18.13;100.00;100608.63;5099495;28;20050;-72
2022/11/01 03:47:07;;;;;;;11.18;4.47;;;;;;;18.09;100.00;100619.16;5095513;28;20047;-72
2022/11/01 03:49:34;;;;;;;13.27;4.35;;;;;;;18.07;100.00;100613.22;5098971;28;20052;-72
2022/11/01 03:52:00;;;;;;;7.82;3.22;;;;;;;17.98;100.00;100630.72;5099203;28;20056;-72
2022/11/01 03:54:28;;;;;;;15.63;4.15;;;;;;;18.09;100.00;100621.19;5100046;28;20451;-71
2022/11/01 03:56:54;;;;;;;17.60;4.60;;;;;;;18.10;100.00;100622.75;5101084;28;20095;-72
2022/11/01 03:59:24;;;;;;;14.43;4.57;;;;;;;18.08;100.00;100633.63;5095053;28;20583;-72
2022/11/01 04:01:51;;;;;;;15.10;4.63;;;;;;;18.05;100.00;100628.94;5093561;28;20052;-73
2022/11/01 04:04:18;;;;;;;17.70;5.18;;;;;;;18.07;100.00;100624.44;5100602;28;20051;-71
2022/11/01 04:06:44;;;;;;;11.52;3.40;;;;;;;18.07;100.00;100638.44;5110137;28;20084;-71
2022/11/01 04:09:11;;;;;;;13.35;4.97;;;;;;;18.11;100.00;100630.69;5095966;28;20557;-71
2022/11/01 04:11:37;;;;;;;12.55;4.30;;;;;;;18.07;100.00;100634.84;5103602;28;20077;-71
2022/11/01 04:22:18;;;;;;;10.43;4.10;;;;;;;18.05;100.00;100643.69;5101010;28;20048;-74
2022/11/01 04:24:49;;;;;;;15.98;4.00;;;;;;;18.05;100.00;100651.31;5100098;28;20649;-71
2022/11/01 04:27:16;;;;;;;11.88;3.63;;;;;;;17.99;100.00;100651.09;5107439;28;20519;-70
2022/11/01 04:29:42;;;;;;;14.48;4.10;;;;;;;18.15;100.00;100662.16;5106835;28;20552;-72
2022/11/01 04:32:11;;;;;;;15.82;3.88;;;;;;;18.10;100.00;100654.34;5094726;28;20039;-73
2022/11/01 04:34:41;;;;;;;9.20;2.80;;;;;;;18.10;100.00;100651.53;5105755;28;20062;-71
2022/11/01 04:37:08;;;;;;;8.70;2.72;;;;;;;18.11;100.00;100657.91;5107462;28;20549;-71
2022/11/01 04:39:34;;;;;;;13.68;5.07;;;;;;;18.18;100.00;100657.66;5095539;28;20052;-72
2022/11/01 04:42:01;;;;;;;8.32;2.80;;;;;;;18.17;100.00;100654.09;5106373;28;20464;-72
2022/11/01 04:44:27;;;;;;;6.90;2.35;;;;;;;18.17;100.00;100665.31;5092369;28;20043;-71
2022/11/01 04:46:54;;;;;;;8.93;3.13;;;;;;;18.18;100.00;100668.88;5097929;28;20044;-72
2022/11/01 04:49:20;;;;;;;9.82;3.17;;;;;;;18.22;100.00;100663.97;5104663;28;20051;-71
2022/11/01 04:51:49;;;;;;;4.00;2.10;;;;;;;18.10;100.00;100673.16;5094259;28;20496;-72
2022/11/01 04:54:16;;;;;;;14.57;4.53;;;;;;;18.22;100.00;100677.97;5103916;28;20059;-72
2022/11/01 04:56:42;;;;;;;10.80;3.63;;;;;;;18.22;100.00;100680.75;5109226;28;20510;-70
2022/11/01 04:59:12;;;;;;;13.68;4.03;;;;;;;18.22;100.00;100678.72;5105799;28;20054;-69
2022/11/01 05:01:38;;;;;;;12.43;4.18;;;;;;;18.27;100.00;100680.97;5108112;28;20047;-70
2022/11/01 05:04:05;;;;;;;15.15;4.15;;;;;;;18.26;100.00;100670.97;5102047;28;20047;-71
2022/11/01 05:06:31;;;;;;;15.63;3.90;;;;;;;18.28;100.00;100681.75;5098583;28;20079;-73
2022/11/01 05:08:57;;;;;;;7.05;2.53;;;;;;;18.22;100.00;100673.13;5096878;28;20501;-70
2022/11/01 05:11:29;;;;;;;4.32;2.20;;;;;;;18.22;100.00;100683.56;5097940;28;20048;-73
2022/11/01 05:13:56;;;;;;;17.73;4.93;;;;;;;18.41;100.00;100688.13;5099440;28;20055;-72
2022/11/01 05:16:23;;;;;;;8.10;2.92;;;;;;;18.33;100.00;100692.38;5100132;28;20048;-73
2022/11/01 05:18:49;;;;;;;6.35;3.08;;;;;;;18.31;100.00;100687.25;5098350;28;20039;-72
2022/11/01 05:21:16;;;;;;;13.20;4.60;;;;;;;18.44;100.00;100688.03;5104626;28;20104;-72
2022/11/01 05:23:48;;;;;;;5.90;2.58;;;;;;;18.40;100.00;100697.78;5110428;28;20109;-71
2022/11/01 05:26:15;;;;;;;7.40;2.88;;;;;;;18.36;100.00;100709.09;5104375;28;20047;-70
2022/11/01 05:28:41;;;;;;;9.73;2.22;;;;;;;18.38;100.00;100714.25;5102664;28;20035;-73
2022/11/01 05:31:10;;;;;;;9.40;2.85;;;;;;;18.36;100.00;100727.94;5102254;28;20040;-71
2022/11/01 05:33:37;;;;;;;4.32;1.85;;;;;;;18.43;100.00;100703.28;5094015;28;20040;-73
2022/11/01 05:36:03;;;;;;;11.38;3.30;;;;;;;18.47;100.00;100719.97;5098317;28;20046;-73
2022/11/01 05:38:30;;;;;;;6.70;2.25;;;;;;;18.43;100.00;100720.09;5104753;28;20047;-73
2022/11/01 05:41:02;;;;;;;4.28;1.85;;;;;;;18.35;100.00;100729.16;5102095;28;20082;-73
2022/11/01 05:43:29;;;;;;;7.95;2.20;;;;;;;18.31;100.00;100734.84;5101598;28;20051;-73
2022/11/01 05:46:02;;;;;;;10.05;2.88;;;;;;;18.30;100.00;100740.91;5105022;28;20103;-73
2022/11/01 05:48:29;;;;;;;6.90;2.60;;;;;;;18.35;100.00;100740.34;5103363;28;20044;-74
2022/11/01 05:50:56;;;;;;;5.60;2.30;;;;;;;18.36;100.00;100756.72;5091168;28;20051;-71
2022/11/01 05:53:25;;;;;;;7.90;3.03;;;;;;;18.39;100.00;100761.41;5106111;28;20048;-71
2022/11/01 05:55:55;;;;;;;4.95;1.52;;;;;;;18.39;100.00;100755.81;5108550;28;20043;-72
2022/11/01 05:58:21;;;;;;;10.63;3.00;;;;;;;18.44;100.00;100755.28;5107614;28;20096;-72
2022/11/01 06:01:01;;;;;;;9.63;2.67;;;;;;;18.42;100.00;100762.56;5092161;28;20053;-74
2022/11/01 06:03:27;;;;;;;5.00;2.22;;;;;;;18.40;100.00;100773.41;5095517;28;20093;-73
2022/11/01 06:05:54;;;;;;;8.77;2.33;;;;;;;18.35;100.00;100763.53;5104981;28;20046;-72
2022/11/01 06:08:20;;;;;;;3.28;1.65;;;;;;;18.37;100.00;100772.31;5104164;28;20055;-72
2022/11/01 06:10:49;;;;;;;6.20;2.25;;;;;;;18.28;100.00;100779.75;5107155;28;20043;-72
2022/11/01 06:13:17;;;;;;;5.50;1.80;;;;;;;18.27;100.00;100779.00;5097612;28;20109;-72
2022/11/01 06:15:44;;;;;;;8.18;2.72;;;;;;;18.34;100.00;100791.97;5108356;28;20047;-71
2022/11/01 06:18:10;;;;;;;7.60;2.22;;;;;;;18.22;100.00;100804.00;5099442;28;20051;-72
2022/11/01 06:20:37;;;;;;;2.55;1.10;;;;;;;18.25;100.00;100806.66;5093714;28;20496;-71
2022/11/01 06:23:09;;;;;;;7.85;2.35;;;;;;;18.35;100.00;100811.16;5094898;28;20565;-72
2022/11/01 06:25:35;;;;;;;8.60;2.08;;;;;;;18.31;100.00;100818.88;5106992;28;20515;-72
2022/11/01 06:28:02;;;;;;;6.90;2.50;;;;;;;18.30;100.00;100820.13;5101926;28;20047;-73
2022/11/01 06:30:29;;;;;;;7.82;1.88;;;;;;;18.18;100.00;100820.88;5100383;28;20506;-72
2022/11/01 06:33:00;;;;;;;8.90;1.80;;;;;;;18.29;100.00;100831.78;5106899;28;20048;-71
2022/11/01 06:35:27;;;;;;;4.90;1.67;;;;;;;18.10;100.00;100846.75;5107675;28;20043;-72
2022/11/01 06:37:54;;;;;;;6.30;1.65;;;;;;;18.06;99.65;100844.06;5094872;28;20470;-72
2022/11/01 06:40:20;;;;;;;3.72;1.52;;;;;;;18.05;99.61;100848.06;5097153;28;20062;-72
2022/11/01 06:42:47;;;;;;;6.60;1.80;;;;;;;18.06;98.70;100855.25;5103070;28;20052;-72
2022/11/01 06:45:14;;;;;;;4.05;1.17;;;;;;;17.96;99.52;100854.31;5089033;28;20052;-71
2022/11/01 06:47:45;;;;;;;5.22;2.20;;;;;;;17.85;99.29;100867.06;5092623;28;20040;-71
2022/11/01 06:50:12;;;;;;;3.33;1.80;;;;;;;17.94;99.38;100872.81;5102808;28;20134;-72
2022/11/01 06:52:38;;;;;;;9.00;2.42;;;;;;;17.56;100.00;100897.84;5095984;27;20051;-73
2022/11/01 06:55:05;;;;;;;3.08;1.10;;;;;;;17.75;100.00;100887.72;5100228;28;20048;-71
2022/11/01 06:57:31;;;;;;;5.25;1.95;;;;;;;17.63;100.00;100902.47;5099901;28;20048;-70
2022/11/01 06:59:58;;;;;;;4.55;1.33;;;;;;;17.51;100.00;100909.56;5105967;28;20499;-73
2022/11/01 07:02:24;;;;;;;5.07;1.50;;;;;;;17.56;100.00;100917.41;5102825;28;20063;-73
2022/11/01 07:04:55;;;;;;;2.65;0.95;;;;;;;17.54;100.00;100917.09;5102683;28;20055;-72
2022/11/01 07:07:22;;;;;;;3.10;1.23;;;;;;;17.37;98.19;100911.91;5103127;28;20051;-73
2022/11/01 07:09:48;;;;;;;5.30;1.08;;;;;;;17.32;96.61;100923.66;5103865;28;20051;-71
2022/11/01 07:12:15;;;;;;;4.15;1.40;;;;;;;17.31;95.79;100936.03;5106760;28;20043;-72
2022/11/01 07:14:50;;;;;;;3.70;1.05;;;;;;;17.20;96.29;100925.13;5098468;28;20059;-73
2022/11/01 07:17:16;;;;;;;2.55;1.10;;;;;;;17.16;94.94;100957.19;5100462;28;20113;-73
2022/11/01 07:19:43;;;;;;;2.78;0.82;;;;;;;17.16;94.18;100957.19;5102566;28;20047;-74
2022/11/01 07:22:09;;;;;;;1.58;0.68;;;;;;;17.07;94.77;100955.00;5100381;28;20108;-74
2022/11/01 07:24:36;;;;;;;7.35;1.77;;;;;;;17.08;95.44;100975.38;5097638;28;20062;-72
2022/11/01 07:27:02;;;;;;;1.33;0.73;;;;;;;17.10;96.73;100979.28;5099936;28;20104;-72
2022/11/01 07:29:29;;;;;;;2.65;1.13;;;;;;;16.95;98.44;100971.69;5089712;28;20039;-72
2022/11/01 07:31:55;;;;;;;6.57;2.05;;;;;;;16.88;99.04;100991.41;5095714;28;20051;-73
2022/11/01 07:34:22;;;;;;;3.28;1.23;;;;;;;16.67;95.53;100991.88;5099563;28;20063;-74
2022/11/01 07:36:51;;;;;;;4.40;0.68;;;;;;;16.76;94.07;100995.66;5105101;28;20089;-73
2022/11/01 07:39:18;;;;;;;3.75;1.02;;;;;;;16.68;90.89;101011.00;5104644;28;20040;-73
2022/11/01 07:41:45;;;;;;;6.95;1.50;;;;;;;16.46;87.70;101003.47;5101996;28;20573;-73
2022/11/01 07:44:11;;;;;;;5.68;1.20;;;;;;;16.52;87.26;101005.34;5098946;28;20477;-72
2022/11/01 07:46:46;;;;;;;5.10;1.25;;;;;;;16.41;86.30;101023.50;5110049;28;20047;-73
2022/11/01 07:49:13;;;;;;;2.92;1.30;;;;;;;16.42;86.49;101022.28;5096655;28;20048;-74
2022/11/01 07:51:39;;;;;;;7.35;0.93;;;;;;;16.34;85.73;101034.81;5107627;28;20074;-72
2022/11/01 07:54:06;;;;;;;3.30;1.00;;;;;;;16.27;86.30;101026.59;5098142;28;20055;-75
2022/11/01 07:56:33;;;;;;;2.90;0.93;;;;;;;16.27;85.91;101029.38;5102837;28;20050;-72
2022/11/01 07:59:02;;;;;;;2.70;1.33;;;;;;;16.43;84.90;101035.84;5106039;28;20040;-73
2022/11/01 08:01:33;;;;;;;3.50;1.42;;;;;;;16.28;85.02;101036.53;5101872;28;20076;-74
2022/11/01 08:03:59;;;;;;;7.40;1.77;;;;;;;16.29;85.14;101044.47;5099717;28;20040;-73
2022/11/01 08:06:26;;;;;;;6.18;1.48;;;;;;;16.26;85.96;101036.97;5100437;28;20100;-71
2022/11/01 08:08:54;;;;;;;5.80;1.80;;;;;;;16.53;86.00;101040.44;5101841;28;20071;-73
2022/11/01 08:11:20;;;;;;;3.65;0.90;;;;;;;16.51;86.46;101053.28;5103994;28;20370;-71
2022/11/01 08:13:46;;;;;;;3.70;1.30;;;;;;;16.55;87.08;101052.00;5096681;27;20063;-73
2022/11/01 08:16:16;;;;;;;4.38;1.33;;;;;;;16.58;87.07;101053.13;5111028;28;20059;-74
2022/11/01 08:18:43;;;;;;;5.50;1.25;;;;;;;16.58;87.36;101056.72;5098238;28;20042;-72
2022/11/01 08:21:11;;;;;;;2.72;1.20;;;;;;;16.42;87.56;101076.19;5105899;28;20060;-74
2022/11/01 08:23:37;;;;;;;3.92;0.80;;;;;;;16.46;86.74;101084.47;5100178;28;20067;-74
2022/11/01 08:26:05;;;;;;;4.80;0.90;;;;;;;16.56;86.41;101078.69;5097067;27;20108;-73
2022/11/01 08:28:31;;;;;;;6.13;1.60;;;;;;;16.43;85.43;101110.50;5103547;28;20056;-73
2022/11/01 08:30:58;;;;;;;5.40;1.20;;;;;;;16.64;84.36;101085.72;5099609;28;20055;-74
2022/11/01 08:33:24;;;;;;;7.50;1.25;;;;;;;16.52;82.63;101088.34;5108125;27;20075;-74
2022/11/01 08:35:51;;;;;;;5.80;1.40;;;;;;;16.76;83.06;101089.88;5114398;27;20051;-73
2022/11/01 08:38:18;;;;;;;3.50;0.70;;;;;;;16.55;80.89;101112.66;5098457;28;20048;-71
2022/11/01 08:40:44;;;;;;;2.60;0.88;;;;;;;16.63;81.10;101100.09;5089010;28;20569;-72
2022/11/01 08:43:11;;;;;;;2.47;1.00;;;;;;;16.63;79.68;101103.69;5090505;28;20059;-73
2022/11/01 08:45:38;;;;;;;10.73;1.52;;;;;;;16.68;82.37;101116.38;5104674;27;20052;-70
2022/11/01 08:48:05;;;;;;;6.10;1.77;;;;;;;16.64;79.85;101113.66;5101475;28;20047;-70
2022/11/01 08:50:33;;;;;;;7.22;1.30;;;;;;;16.66;80.02;101116.81;5100724;28;20439;-72
2022/11/01 08:53:08;;;;;;;12.55;1.85;;;;;;;16.66;79.75;101119.59;5103603;28;20134;-74
2022/11/01 08:55:35;;;;;;;3.83;0.93;;;;;;;16.75;79.64;101119.84;5099808;28;20674;-70
2022/11/01 08:58:04;;;;;;;2.45;1.05;;;;;;;16.78;80.37;101127.34;5103864;28;20415;-71
2022/11/01 09:00:32;;;;;;;6.13;0.98;;;;;;;16.91;79.60;101127.50;5095355;28;20060;-71
2022/11/01 09:02:58;;;;;;;6.20;1.10;;;;;;;16.83;78.77;101137.22;5106155;28;20055;-71
2022/11/01 09:05:25;;;;;;;7.88;1.60;;;;;;;16.69;78.02;101143.91;5101205;28;20067;-71
2022/11/01 09:07:58;;;;;;;10.13;1.75;;;;;;;16.66;77.98;101147.53;5094440;28;20465;-71
2022/11/01 09:10:27;;;;;;;7.55;1.38;;;;;;;16.70;78.07;101148.25;5098612;27;20047;-72
2022/11/01 09:12:53;;;;;;;9.95;1.88;;;;;;;16.75;76.29;101156.16;5102910;27;20055;-74
2022/11/01 09:15:20;;;;;;;8.60;1.73;;;;;;;16.70;75.40;101167.03;5101986;28;20059;-71
2022/11/01 09:17:46;;;;;;;7.13;1.75;;;;;;;16.75;75.82;101149.78;5097053;28;20048;-74
2022/11/01 09:20:14;;;;;;;7.53;1.30;;;;;;;16.77;73.48;101206.03;5095815;28;20056;-75
2022/11/01 09:22:40;;;;;;;9.18;1.25;;;;;;;16.89;72.92;101160.66;5092400;28;20055;-71
2022/11/01 09:25:07;;;;;;;5.65;1.52;;;;;;;16.80;72.39;101169.63;5107680;28;20050;-71
2022/11/01 09:27:34;;;;;;;11.45;1.17;;;;;;;16.89;72.44;101166.25;5093635;28;20052;-73
2022/11/01 09:30:00;;;;;;;16.05;1.95;;;;;;;16.77;70.47;101169.72;5104691;28;20051;-73
2022/11/01 09:32:28;;;;;;;7.35;1.35;;;;;;;16.99;68.67;101165.25;5107717;28;20059;-70
2022/11/01 09:34:54;;;;;;;5.32;1.33;;;;;;;17.07;68.59;101167.47;5095330;27;20077;-73
2022/11/01 09:37:21;;;;;;;9.60;2.42;;;;;;;17.06;68.55;101165.13;5102516;28;20115;-73
2022/11/01 09:39:47;;;;;;;8.60;1.08;;;;;;;17.27;68.72;101171.06;5104919;28;20043;-73
2022/11/01 09:42:23;;;;;;;5.13;0.82;;;;;;;17.11;67.50;101176.56;5101102;28;20108;-72
2022/11/01 09:44:52;;;;;;;0.90;0.43;;;;;;;17.10;67.54;101180.59;5106676;28;20074;-73
2022/11/01 09:47:27;;;;;;;12.20;1.70;;;;;;;17.11;68.41;101189.78;5105424;28;20051;-71
2022/11/01 09:50:22;;;;;;;8.00;1.45;;;;;;;17.22;67.45;101184.75;5106623;27;20043;-73
2022/11/01 09:52:51;;;;;;;10.35;1.92;;;;;;;17.23;66.37;101178.75;5087687;27;20047;-74
2022/11/01 09:56:04;;;;;;;7.90;1.52;;;;;;;17.16;66.05;101186.47;5095329;28;20159;-73
2022/11/01 09:59:05;;;;;;;8.05;1.90;;;;;;;17.44;67.02;101183.09;5094807;27;20452;-74
2022/11/01 10:01:55;;;;;;;14.50;1.90;;;;;;;17.39;66.85;101195.56;5089774;28;20051;-74
2022/11/01 10:04:37;;;;;;;4.85;0.98;;;;;;;17.49;66.37;101210.59;5091453;28;20129;-75
2022/11/01 10:07:12;;;;;;;11.85;2.10;;;;;;;17.40;65.90;101199.16;5091983;28;20048;-73
2022/11/01 10:10:04;;;;;;;7.72;1.08;;;;;;;17.50;65.52;101206.56;5089849;28;20044;-74
2022/11/01 10:12:52;;;;;;;4.03;1.00;;;;;;;17.72;65.81;101202.84;5101768;28;20581;-72
2022/11/01 10:15:18;;;;;;;12.15;1.52;;;;;;;17.78;66.29;101212.31;5108316;28;20131;-74
2022/11/01 10:17:51;;;;;;;4.72;1.02;;;;;;;17.92;65.24;101205.59;5103487;28;20777;-73
2022/11/01 10:20:23;;;;;;;5.13;1.17;;;;;;;17.84;64.47;101193.78;5092743;28;20039;-73
2022/11/01 10:22:50;;;;;;;10.73;2.38;;;;;;;18.05;63.77;101203.69;5091917;28;20475;-74
2022/11/01 10:25:27;;;;;;;6.50;1.38;;;;;;;18.01;64.72;101194.59;5094340;28;20048;-74
2022/11/01 10:28:15;;;;;;;8.48;2.08;;;;;;;17.93;63.98;101195.97;5089402;28;20092;-75
2022/11/01 10:30:46;;;;;;;10.90;1.80;;;;;;;18.08;63.29;101205.63;5093966;28;20048;-75
2022/11/01 10:33:29;;;;;;;7.40;1.63;;;;;;;18.14;63.54;101200.28;5086262;28;20052;-72
2022/11/01 10:36:01;;;;;;;9.20;1.60;;;;;;;18.16;64.29;101192.22;5092144;28;20044;-70
2022/11/01 10:38:36;;;;;;;8.45;1.60;;;;;;;18.30;62.31;101200.28;5092266;28;20519;-73
2022/11/01 10:41:28;;;;;;;6.73;1.30;;;;;;;18.50;61.57;101201.81;5089419;28;20105;-73
2022/11/01 10:43:59;;;;;;;7.93;1.52;;;;;;;18.47;61.90;101197.06;5094352;28;20780;-74
2022/11/01 10:46:31;;;;;;;0.85;0.40;;;;;;;18.78;61.65;101189.03;5092422;28;20503;-74
2022/11/01 10:49:01;;;;;;;6.47;1.35;;;;;;;18.73;60.26;101204.38;5091020;28;20048;-73
2022/11/01 10:51:31;;;;;;;5.05;1.38;;;;;;;18.80;60.89;101198.56;5089085;28;20075;-74
2022/11/01 10:54:03;;;;;;;4.32;1.10;;;;;;;18.83;60.34;101206.09;5092795;28;20051;-73
2022/11/01 10:56:42;;;;;;;8.38;1.60;;;;;;;18.92;59.52;101200.66;5099306;28;20044;-73
2022/11/01 10:59:24;;;;;;;13.00;2.25;;;;;;;19.10;59.67;101195.31;5104060;28;20057;-75
2022/11/01 11:01:52;;;;;;;4.80;0.90;;;;;;;19.23;59.57;101206.56;5091828;28;20480;-73
2022/11/01 11:04:22;;;;;;;8.50;1.05;;;;;;;19.15;58.83;101192.00;5085274;28;20047;-74
2022/11/01 11:06:50;;;;;;;9.10;1.60;;;;;;;19.21;59.24;101206.25;5092601;28;20070;-73
2022/11/01 11:09:26;;;;;;;9.80;1.73;;;;;;;19.62;57.09;101200.63;5098930;28;20054;-73
2022/11/01 11:11:57;;;;;;;13.48;2.35;;;;;;;19.64;56.27;101201.75;5091509;28;20454;-73
2022/11/01 11:14:24;;;;;;;3.85;0.57;;;;;;;19.61;56.77;101208.25;5079088;27;20058;-74
2022/11/01 11:16:56;;;;;;;7.25;1.77;;;;;;;19.66;56.30;101204.91;5067416;28;20051;-74
2022/11/01 11:19:37;;;;;;;12.18;1.70;;;;;;;19.95;56.27;101194.34;5072318;28;20959;-75
2022/11/01 11:22:08;;;;;;;2.90;1.00;;;;;;;20.26;55.58;101203.78;5067546;28;20059;-74
2022/11/01 11:24:38;;;;;;;9.30;1.85;;;;;;;20.95;53.79;101201.84;5070294;28;20055;-73
2022/11/01 11:27:22;;;;;;;8.02;1.75;;;;;;;20.68;52.19;101212.03;5070608;27;20091;-74
2022/11/01 11:29:50;;;;;;;6.85;1.13;;;;;;;20.30;53.00;101207.28;5068972;27;20134;-74
2022/11/01 11:32:27;;;;;;;4.25;1.25;;;;;;;20.33;53.34;101219.66;5068734;28;20052;-74
2022/11/01 11:34:57;;;;;;;7.53;1.33;;;;;;;19.98;53.99;101221.53;5076915;27;20052;-73
2022/11/01 11:37:28;;;;;;;5.32;0.90;;;;;;;20.59;52.30;101234.44;5079551;28;20064;-73
2022/11/01 11:40:15;;;;;;;6.25;0.98;;;;;;;20.98;51.15;101205.75;5077547;28;20051;-74
2022/11/01 11:42:43;;;;;;;10.75;1.85;;;;;;;21.30;49.05;101208.19;5083918;28;20047;-74